Time;durP1;ratioP1;P1;durP2;ratioP2;P2;SDS_P1;SDS_P2;PMS_P1;PMS_P2;Temp;Humidity;BMP_temperature;BMP_pressure;BME280_temperature;BME280_humidity;BME280_pressure;Samples;Min_cycle;Max_cycle;Signal;HPM_P1;HPM_P2
2021/08/11 00:01:22;;;;;;;7.43;5.20;;;24.10;72.40;;;;;;5053597;28;20086;-74
2021/08/11 00:03:48;;;;;;;6.68;5.93;;;24.00;72.40;;;;;;5053705;28;20021;-73
2021/08/11 00:06:15;;;;;;;5.85;5.35;;;24.00;72.50;;;;;;5053386;28;20052;-74
2021/08/11 00:08:43;;;;;;;9.68;5.40;;;24.00;72.70;;;;;;5053712;28;20463;-74
2021/08/11 00:11:09;;;;;;;7.65;6.13;;;24.00;72.80;;;;;;5053467;28;20024;-74
2021/08/11 00:13:35;;;;;;;12.00;5.90;;;24.00;72.90;;;;;;5053377;28;20375;-75
2021/08/11 00:16:00;;;;;;;6.20;5.60;;;23.90;73.00;;;;;;5053442;28;20028;-75
2021/08/11 00:18:26;;;;;;;5.70;4.82;;;23.90;73.10;;;;;;5052534;28;20025;-74
2021/08/11 00:20:52;;;;;;;7.47;6.20;;;23.90;73.20;;;;;;5053232;28;20513;-74
2021/08/11 00:23:18;;;;;;;7.05;6.03;;;23.80;73.20;;;;;;5053391;28;20060;-74
2021/08/11 00:25:43;;;;;;;10.50;5.88;;;23.80;73.30;;;;;;5053227;28;20079;-74
2021/08/11 00:28:09;;;;;;;10.05;5.95;;;23.80;73.50;;;;;;5051918;28;20383;-74
2021/08/11 00:30:35;;;;;;;7.63;6.20;;;23.80;73.60;;;;;;5053083;28;20029;-74
2021/08/11 00:33:00;;;;;;;8.75;6.25;;;23.80;73.70;;;;;;5053384;28;20090;-75
2021/08/11 00:35:26;;;;;;;8.55;5.80;;;23.70;73.70;;;;;;5053178;28;20128;-75
2021/08/11 00:37:52;;;;;;;8.38;6.57;;;23.70;73.90;;;;;;5052929;28;20468;-75
2021/08/11 00:40:19;;;;;;;8.63;6.45;;;23.60;73.90;;;;;;5053046;28;20036;-75
2021/08/11 00:42:46;;;;;;;9.73;6.13;;;23.70;74.10;;;;;;5052802;28;20096;-75
2021/08/11 00:45:14;;;;;;;7.47;6.15;;;23.60;74.20;;;;;;5052843;28;20533;-76
2021/08/11 00:47:40;;;;;;;9.20;6.38;;;23.60;74.40;;;;;;5052752;28;20498;-75
2021/08/11 00:50:07;;;;;;;9.80;6.28;;;23.50;74.40;;;;;;5052853;28;20036;-75
2021/08/11 00:52:33;;;;;;;8.48;6.57;;;23.60;74.50;;;;;;5052635;28;20032;-75
2021/08/11 00:55:01;;;;;;;10.65;6.45;;;23.50;74.60;;;;;;5052445;28;20036;-76
2021/08/11 00:57:27;;;;;;;7.53;6.82;;;23.50;74.70;;;;;;5052718;28;20017;-76
2021/08/11 00:59:55;;;;;;;10.23;6.22;;;23.50;74.70;;;;;;5051336;28;20043;-75
2021/08/11 01:02:22;;;;;;;7.43;6.68;;;23.50;74.80;;;;;;5052504;28;20021;-76
2021/08/11 01:04:51;;;;;;;6.78;6.07;;;23.50;75.00;;;;;;5052563;28;20040;-76
2021/08/11 01:07:17;;;;;;;6.63;5.90;;;23.50;75.00;;;;;;5052399;28;20024;-75
2021/08/11 01:09:43;;;;;;;8.02;6.68;;;23.50;75.10;;;;;;5052359;28;20104;-76
2021/08/11 01:12:10;;;;;;;10.00;6.53;;;23.40;75.20;;;;;;5052354;28;20017;-76
2021/08/11 01:14:37;;;;;;;9.65;6.30;;;23.40;75.20;;;;;;5052321;28;20032;-76
2021/08/11 01:17:04;;;;;;;7.45;6.70;;;23.40;75.30;;;;;;5052306;28;20425;-74
2021/08/11 01:19:31;;;;;;;10.35;6.65;;;23.40;75.40;;;;;;5052177;28;20025;-75
2021/08/11 01:22:09;;;;;;;8.57;6.35;;;23.40;75.60;;;;;;5050890;28;20383;-74
2021/08/11 01:24:56;;;;;;;7.97;6.47;;;23.40;75.70;;;;;;5052217;28;20025;-75
2021/08/11 01:27:49;;;;;;;9.88;6.78;;;23.40;75.70;;;;;;5052085;28;20540;-74
2021/08/11 01:30:18;;;;;;;7.70;6.47;;;23.40;75.80;;;;;;5050695;28;20467;-75
2021/08/11 01:32:53;;;;;;;7.22;6.57;;;23.30;75.80;;;;;;5052023;28;20029;-74
2021/08/11 01:35:22;;;;;;;8.23;6.20;;;23.30;76.00;;;;;;5052121;28;20032;-74
2021/08/11 01:37:53;;;;;;;7.72;6.32;;;23.30;76.10;;;;;;5051921;28;20028;-74
2021/08/11 01:40:24;;;;;;;6.88;6.18;;;23.30;76.80;;;;;;5051913;28;20136;-74
2021/08/11 01:42:53;;;;;;;8.10;6.75;;;23.20;76.20;;;;;;5051843;28;20108;-75
2021/08/11 01:45:24;;;;;;;8.68;6.40;;;23.20;76.20;;;;;;5051968;28;20083;-73
2021/08/11 01:47:59;;;;;;;9.43;6.72;;;23.20;76.30;;;;;;5051755;28;20056;-73
2021/08/11 01:50:28;;;;;;;9.60;6.43;;;23.20;76.50;;;;;;5051820;28;20151;-74
2021/08/11 01:52:55;;;;;;;8.25;6.85;;;23.20;76.50;;;;;;5050713;28;20053;-73
2021/08/11 01:55:21;;;;;;;7.15;6.45;;;23.20;76.60;;;;;;5051543;28;20079;-74
2021/08/11 01:57:51;;;;;;;10.48;7.05;;;23.10;76.60;;;;;;5052009;28;20039;-74
2021/08/11 02:00:19;;;;;;;6.70;6.10;;;23.20;76.70;;;;;;5051860;28;20406;-75
2021/08/11 02:02:47;;;;;;;10.68;6.50;;;23.10;76.60;;;;;;5052327;28;20022;-74
2021/08/11 02:05:15;;;;;;;7.63;6.13;;;23.10;76.70;;;;;;5050684;28;20368;-74
2021/08/11 02:07:41;;;;;;;9.05;6.53;;;23.10;76.80;;;;;;5051996;28;20040;-74
2021/08/11 02:10:10;;;;;;;7.88;6.18;;;23.10;76.80;;;;;;5051940;28;20051;-73
2021/08/11 02:12:36;;;;;;;8.90;7.53;;;23.10;76.80;;;;;;5052066;28;20021;-74
2021/08/11 02:15:05;;;;;;;6.53;5.93;;;23.10;76.80;;;;;;5051810;28;20051;-74
2021/08/11 02:17:30;;;;;;;7.43;6.07;;;23.00;76.90;;;;;;5051585;28;20402;-74
2021/08/11 02:19:56;;;;;;;7.15;6.20;;;23.00;77.00;;;;;;5051640;28;20021;-74
2021/08/11 02:22:22;;;;;;;12.35;6.45;;;23.00;77.00;;;;;;5051782;28;20485;-74
2021/08/11 02:24:48;;;;;;;8.40;6.40;;;23.00;77.10;;;;;;5051991;28;20025;-73
2021/08/11 02:27:20;;;;;;;7.40;6.55;;;23.00;77.20;;;;;;5051700;28;20025;-73
2021/08/11 02:29:58;;;;;;;8.45;6.43;;;23.00;77.30;;;;;;5051727;28;20098;-73
2021/08/11 02:32:35;;;;;;;7.97;6.85;;;23.00;77.30;;;;;;5051460;28;20552;-73
2021/08/11 02:35:28;;;;;;;8.93;6.82;;;22.90;77.30;;;;;;5050113;28;20384;-73
2021/08/11 02:38:13;;;;;;;8.30;7.00;;;22.90;77.50;;;;;;5051543;28;20028;-74
2021/08/11 02:40:48;;;;;;;9.77;7.55;;;22.90;77.60;;;;;;5051725;28;20067;-74
2021/08/11 02:43:16;;;;;;;8.23;6.70;;;22.90;77.60;;;;;;5054502;28;20036;-75
2021/08/11 02:45:42;;;;;;;10.18;6.40;;;22.90;77.70;;;;;;5055557;28;20088;-74
2021/08/11 02:48:12;;;;;;;9.50;6.35;;;22.90;77.90;;;;;;5055417;28;20513;-74
2021/08/11 02:50:39;;;;;;;9.95;7.53;;;22.90;77.90;;;;;;5055740;28;20411;-74
2021/08/11 02:53:06;;;;;;;10.55;7.00;;;23.00;78.00;;;;;;5056234;28;20032;-74
2021/08/11 02:55:37;;;;;;;10.95;7.30;;;22.90;77.90;;;;;;5055560;28;20520;-73
2021/08/11 02:58:03;;;;;;;10.25;7.38;;;22.90;78.00;;;;;;5055669;28;20043;-73
2021/08/11 03:00:30;;;;;;;9.82;6.57;;;22.90;77.90;;;;;;5056188;28;20025;-73
2021/08/11 03:02:55;;;;;;;12.32;7.70;;;23.00;77.90;;;;;;5056200;28;20082;-74
2021/08/11 03:05:21;;;;;;;17.65;8.18;;;23.00;77.90;;;;;;5055056;28;20033;-74
2021/08/11 03:07:48;;;;;;;9.45;7.47;;;23.00;77.80;;;;;;5055108;28;20425;-74
2021/08/11 03:10:14;;;;;;;14.90;8.32;;;23.00;77.70;;;;;;5055212;28;20017;-74
2021/08/11 03:12:46;;;;;;;12.55;6.95;;;23.00;77.60;;;;;;5054859;28;20029;-74
2021/08/11 03:15:13;;;;;;;7.57;6.72;;;23.10;77.50;;;;;;5056145;28;20120;-75
2021/08/11 03:17:40;;;;;;;7.40;6.70;;;23.20;77.40;;;;;;5056880;28;20047;-74
2021/08/11 03:20:07;;;;;;;13.63;6.88;;;23.30;77.20;;;;;;5053970;28;20025;-75
2021/08/11 03:22:33;;;;;;;9.40;6.90;;;23.50;76.60;;;;;;5054249;28;20051;-75
2021/08/11 03:25:00;;;;;;;7.25;6.50;;;23.60;76.10;;;;;;5052921;28;20074;-75
2021/08/11 03:27:25;;;;;;;13.25;6.70;;;23.60;75.80;;;;;;5054188;28;20047;-75
2021/08/11 03:29:51;;;;;;;9.20;6.93;;;23.80;75.60;;;;;;5054347;28;20460;-74
2021/08/11 03:32:17;;;;;;;7.85;6.60;;;23.90;75.20;;;;;;5054151;28;20033;-74
2021/08/11 03:34:43;;;;;;;9.82;6.93;;;24.00;74.90;;;;;;5053978;28;20076;-75
2021/08/11 03:37:13;;;;;;;10.50;6.25;;;24.00;74.60;;;;;;5052752;28;20510;-74
2021/08/11 03:39:39;;;;;;;14.70;7.15;;;24.10;74.40;;;;;;5054018;28;20021;-74
2021/08/11 03:42:05;;;;;;;11.05;7.35;;;24.10;74.20;;;;;;5054040;28;20026;-75
2021/08/11 03:44:30;;;;;;;9.52;7.15;;;24.10;74.00;;;;;;5053931;28;20029;-75
2021/08/11 03:46:56;;;;;;;9.77;6.97;;;24.20;74.00;;;;;;5053758;28;20104;-75
2021/08/11 03:49:22;;;;;;;11.95;7.10;;;24.30;73.90;;;;;;5053984;28;20056;-74
2021/08/11 03:51:48;;;;;;;11.13;6.82;;;24.30;73.80;;;;;;5053986;28;20111;-75
2021/08/11 03:54:13;;;;;;;10.98;7.20;;;24.40;73.70;;;;;;5053762;28;20480;-75
2021/08/11 03:56:39;;;;;;;9.18;6.80;;;24.40;73.60;;;;;;5053305;28;20495;-76
2021/08/11 03:59:05;;;;;;;11.43;7.00;;;24.50;73.50;;;;;;5053463;28;20428;-74
2021/08/11 04:01:31;;;;;;;7.63;6.40;;;24.60;73.30;;;;;;5053675;28;20025;-74
2021/08/11 04:03:57;;;;;;;10.95;6.88;;;24.80;73.00;;;;;;5052284;28;20159;-75
2021/08/11 04:06:22;;;;;;;8.73;6.82;;;25.10;72.50;;;;;;5053566;28;20025;-76
2021/08/11 04:08:48;;;;;;;8.57;7.68;;;25.30;71.80;;;;;;5053135;28;20021;-76
2021/08/11 04:11:14;;;;;;;8.48;6.63;;;25.50;71.40;;;;;;5053057;28;20025;-76
2021/08/11 04:13:39;;;;;;;11.75;6.55;;;25.70;71.10;;;;;;5051718;28;20435;-75
2021/08/11 04:16:05;;;;;;;7.72;7.00;;;26.10;70.70;;;;;;5052537;28;20079;-75
2021/08/11 04:18:31;;;;;;;13.25;6.13;;;26.80;69.70;;;;;;5052774;28;20106;-77
2021/08/11 04:20:57;;;;;;;9.77;7.30;;;27.60;68.30;;;;;;5052592;28;20029;-75
2021/08/11 04:23:23;;;;;;;18.38;6.43;;;28.50;66.60;;;;;;5052893;28;20036;-74
2021/08/11 04:25:48;;;;;;;9.20;6.40;;;29.30;64.80;;;;;;5052571;28;20100;-73
2021/08/11 04:28:14;;;;;;;9.95;6.25;;;30.00;63.20;;;;;;5052607;28;20157;-76
2021/08/11 04:30:41;;;;;;;9.98;6.18;;;30.90;61.80;;;;;;5052639;28;20100;-75
2021/08/11 04:33:07;;;;;;;12.45;5.93;;;31.60;60.20;;;;;;5052904;28;20017;-75
2021/08/11 04:35:32;;;;;;;7.78;5.78;;;32.40;58.70;;;;;;5052640;28;20031;-75
2021/08/11 04:37:58;;;;;;;9.35;5.93;;;33.00;57.20;;;;;;5052581;28;20021;-74
2021/08/11 04:40:24;;;;;;;6.40;5.80;;;33.60;55.80;;;;;;5052503;28;20029;-75
2021/08/11 04:42:50;;;;;;;11.90;9.90;;;34.20;54.60;;;;;;5052501;28;20177;-75
2021/08/11 04:45:16;;;;;;;11.55;9.55;;;34.80;53.50;;;;;;5052310;28;20025;-75
2021/08/11 04:47:42;;;;;;;10.82;5.88;;;35.30;52.40;;;;;;5051895;28;20086;-75
2021/08/11 04:50:08;;;;;;;11.30;6.00;;;35.90;51.50;;;;;;5052565;28;20057;-75
2021/08/11 04:52:34;;;;;;;8.55;5.90;;;36.40;50.50;;;;;;5052073;28;20135;-76
2021/08/11 04:55:02;;;;;;;21.80;6.97;;;36.90;49.60;;;;;;5051602;28;20037;-75
2021/08/11 04:57:27;;;;;;;11.38;6.10;;;37.40;48.70;;;;;;5052298;28;20020;-76
2021/08/11 04:59:53;;;;;;;7.38;5.55;;;37.80;48.00;;;;;;5050670;28;20021;-75
2021/08/11 05:02:19;;;;;;;12.98;6.25;;;38.20;47.20;;;;;;5050864;28;20093;-75
2021/08/11 05:04:44;;;;;;;8.60;6.10;;;38.60;46.60;;;;;;5051510;28;20025;-76
2021/08/11 05:07:10;;;;;;;11.52;5.75;;;39.00;45.90;;;;;;5051937;28;20104;-75
2021/08/11 05:09:36;;;;;;;8.98;5.53;;;39.30;45.40;;;;;;5052049;28;20029;-75
2021/08/11 05:12:02;;;;;;;8.15;5.88;;;39.70;44.90;;;;;;5052003;28;20040;-76
2021/08/11 05:14:32;;;;;;;5.97;5.38;;;40.00;44.40;;;;;;5051902;28;20479;-76
2021/08/11 05:16:58;;;;;;;13.30;5.82;;;40.40;43.70;;;;;;5051431;28;20032;-75
2021/08/11 05:19:24;;;;;;;11.32;5.85;;;40.70;43.40;;;;;;5051442;28;20051;-76
2021/08/11 05:21:50;;;;;;;6.53;5.72;;;41.10;43.00;;;;;;5051570;28;20021;-75
2021/08/11 05:24:16;;;;;;;12.95;6.20;;;41.40;42.60;;;;;;5051324;28;20075;-76
2021/08/11 05:26:45;;;;;;;8.38;5.63;;;41.70;42.30;;;;;;5051675;28;20425;-76
2021/08/11 05:29:12;;;;;;;13.90;6.25;;;42.00;41.80;;;;;;5051188;28;20021;-75
2021/08/11 05:31:38;;;;;;;9.02;5.80;;;42.30;41.50;;;;;;5051520;28;20047;-75
2021/08/11 05:34:04;;;;;;;13.65;6.10;;;42.50;41.20;;;;;;5051408;28;20048;-75
2021/08/11 05:36:30;;;;;;;10.20;5.70;;;42.70;40.90;;;;;;5051142;28;20108;-77
2021/08/11 05:38:55;;;;;;;10.30;6.03;;;43.00;40.60;;;;;;5051316;28;20029;-76
2021/08/11 05:41:21;;;;;;;9.68;5.88;;;43.10;41.00;;;;;;5051448;28;20780;-76
2021/08/11 05:43:47;;;;;;;15.35;6.18;;;43.20;40.20;;;;;;5051269;28;20027;-77
2021/08/11 05:46:12;;;;;;;9.05;5.78;;;43.40;40.10;;;;;;5050271;28;20029;-76
2021/08/11 05:48:38;;;;;;;13.40;6.53;;;43.50;39.90;;;;;;5049492;28;20527;-76
2021/08/11 05:51:04;;;;;;;10.00;6.43;;;43.60;39.80;;;;;;5050038;28;20452;-76
2021/08/11 05:53:30;;;;;;;9.98;6.05;;;43.70;39.70;;;;;;5048606;28;20028;-76
2021/08/11 05:55:55;;;;;;;9.95;6.35;;;43.60;39.60;;;;;;5049507;28;20049;-76
2021/08/11 05:58:21;;;;;;;8.98;6.63;;;43.50;39.40;;;;;;5049847;28;20017;-75
2021/08/11 06:00:47;;;;;;;9.25;6.35;;;43.50;39.60;;;;;;5049529;28;20460;-75
2021/08/11 06:03:12;;;;;;;7.97;5.90;;;43.60;39.60;;;;;;5049885;28;20021;-76
2021/08/11 06:05:39;;;;;;;13.68;6.32;;;43.70;39.40;;;;;;5048469;28;20463;-76
2021/08/11 06:08:05;;;;;;;9.07;5.78;;;43.80;39.20;;;;;;5049929;28;20087;-77
2021/08/11 06:10:31;;;;;;;13.18;6.95;;;43.80;39.00;;;;;;5049626;28;20032;-77
2021/08/11 06:12:56;;;;;;;10.98;6.18;;;43.30;39.10;;;;;;5049909;28;20021;-76
2021/08/11 06:15:22;;;;;;;7.75;6.07;;;42.90;39.40;;;;;;5049799;28;20025;-77
2021/08/11 06:17:49;;;;;;;10.50;6.50;;;42.60;39.80;;;;;;5051832;28;20013;-76
2021/08/11 06:20:21;;;;;;;9.68;5.85;;;42.10;40.00;;;;;;5053591;28;20063;-76
2021/08/11 06:22:47;;;;;;;11.25;7.28;;;41.60;40.60;;;;;;5051575;28;20025;-76
2021/08/11 06:25:13;;;;;;;12.05;7.10;;;40.90;41.20;;;;;;5052400;28;20023;-76
2021/08/11 06:27:39;;;;;;;11.50;6.80;;;40.40;42.00;;;;;;5053780;28;20039;-76
2021/08/11 06:30:06;;;;;;;10.85;6.93;;;40.40;42.50;;;;;;5053717;28;20036;-75
2021/08/11 06:32:32;;;;;;;9.70;6.82;;;40.50;42.50;;;;;;5053276;28;20051;-76
2021/08/11 06:34:57;;;;;;;14.30;7.90;;;40.30;42.50;;;;;;5053251;28;20114;-76
2021/08/11 06:37:23;;;;;;;14.85;6.78;;;40.10;42.80;;;;;;5053489;28;20032;-76
2021/08/11 06:39:49;;;;;;;21.02;6.80;;;39.80;43.10;;;;;;5053374;28;20017;-76
2021/08/11 06:42:15;;;;;;;11.13;6.53;;;39.70;43.60;;;;;;5053539;28;20738;-77
2021/08/11 06:44:41;;;;;;;12.40;7.75;;;39.80;43.60;;;;;;5053549;28;20025;-76
2021/08/11 06:47:07;;;;;;;14.48;6.50;;;39.90;43.60;;;;;;5053379;28;20383;-78
2021/08/11 06:49:33;;;;;;;10.93;6.05;;;40.00;43.70;;;;;;5053235;28;20021;-76
2021/08/11 06:51:58;;;;;;;16.80;6.65;;;40.20;43.60;;;;;;5053157;28;20372;-75
2021/08/11 06:54:24;;;;;;;16.75;6.43;;;40.40;43.60;;;;;;5053141;28;20025;-74
2021/08/11 06:56:50;;;;;;;9.35;6.10;;;40.70;43.30;;;;;;5051571;28;20468;-74
2021/08/11 06:59:15;;;;;;;7.55;6.10;;;41.10;43.10;;;;;;5053078;28;20029;-75
2021/08/11 07:01:41;;;;;;;10.65;6.88;;;41.50;42.80;;;;;;5052819;28;20098;-74
2021/08/11 07:04:07;;;;;;;10.57;6.88;;;41.60;42.50;;;;;;5052768;28;20025;-74
2021/08/11 07:06:33;;;;;;;7.85;6.85;;;41.90;42.20;;;;;;5052850;28;20086;-74
2021/08/11 07:08:58;;;;;;;12.57;6.40;;;42.40;42.00;;;;;;5052797;28;20033;-74
2021/08/11 07:11:24;;;;;;;18.83;6.45;;;42.70;41.50;;;;;;5052494;28;20116;-74
2021/08/11 07:13:50;;;;;;;7.72;5.78;;;43.00;41.30;;;;;;5052833;28;20025;-75
2021/08/11 07:16:16;;;;;;;10.65;7.20;;;43.20;41.00;;;;;;5051430;28;20029;-75
2021/08/11 07:18:42;;;;;;;8.48;6.20;;;43.20;40.70;;;;;;5052603;28;20013;-73
2021/08/11 07:21:08;;;;;;;10.07;6.47;;;43.30;40.70;;;;;;5052678;28;20031;-74
2021/08/11 07:23:34;;;;;;;7.30;5.85;;;43.30;40.60;;;;;;5052824;28;20121;-74
2021/08/11 07:26:00;;;;;;;8.60;5.90;;;43.30;40.50;;;;;;5052863;28;20132;-74
2021/08/11 07:28:25;;;;;;;12.98;5.80;;;43.40;40.60;;;;;;5051887;28;20475;-75
2021/08/11 07:30:51;;;;;;;10.90;6.47;;;43.40;40.50;;;;;;5052254;28;20486;-73
2021/08/11 07:33:17;;;;;;;11.18;5.60;;;43.30;40.50;;;;;;5052188;28;20541;-75
2021/08/11 07:35:43;;;;;;;10.15;5.82;;;42.90;40.80;;;;;;5052137;28;20021;-75
2021/08/11 07:38:09;;;;;;;26.15;7.63;;;42.50;41.00;;;;;;5051998;28;20102;-74
2021/08/11 07:40:36;;;;;;;9.70;6.95;;;42.40;41.40;;;;;;5052373;28;20013;-74
2021/08/11 07:43:04;;;;;;;12.52;6.38;;;42.40;41.60;;;;;;5052149;28;20020;-75
2021/08/11 07:45:30;;;;;;;8.98;5.70;;;42.40;41.70;;;;;;5052299;28;20025;-75
2021/08/11 07:47:57;;;;;;;9.25;6.07;;;42.40;41.50;;;;;;5051754;28;20738;-75
2021/08/11 07:50:26;;;;;;;9.45;6.00;;;42.40;41.50;;;;;;5047937;28;20111;-75
2021/08/11 07:52:52;;;;;;;9.32;6.35;;;42.30;41.50;;;;;;5051896;28;20414;-75
2021/08/11 07:55:18;;;;;;;6.93;5.85;;;42.10;41.50;;;;;;5051506;28;20064;-75
2021/08/11 07:57:44;;;;;;;18.60;6.78;;;42.10;41.70;;;;;;5049250;28;20013;-75
2021/08/11 08:00:12;;;;;;;12.32;6.10;;;41.90;41.80;;;;;;5052019;28;20023;-75
2021/08/11 08:02:38;;;;;;;19.00;6.25;;;41.70;41.90;;;;;;5051612;28;20696;-75
2021/08/11 08:05:06;;;;;;;14.68;6.07;;;41.70;42.10;;;;;;5049494;28;20080;-74
2021/08/11 08:07:32;;;;;;;12.73;6.90;;;41.60;42.20;;;;;;5051721;28;20029;-75
2021/08/11 08:09:58;;;;;;;11.63;7.65;;;41.40;42.30;;;;;;5052986;28;20029;-75
2021/08/11 08:12:24;;;;;;;21.10;8.48;;;41.30;42.30;;;;;;5052943;28;20025;-77
2021/08/11 08:14:49;;;;;;;12.27;7.20;;;41.10;42.40;;;;;;5052589;28;20407;-75
2021/08/11 08:17:15;;;;;;;17.50;7.05;;;41.00;42.40;;;;;;5052884;28;20039;-76
2021/08/11 08:19:41;;;;;;;9.70;6.55;;;40.80;42.60;;;;;;5052993;28;20411;-75
2021/08/11 08:22:06;;;;;;;8.70;7.00;;;40.50;42.90;;;;;;5052877;28;20029;-76
2021/08/11 08:24:32;;;;;;;13.00;7.53;;;40.30;43.30;;;;;;5052603;28;20476;-76
2021/08/11 08:27:02;;;;;;;16.02;7.60;;;40.10;43.50;;;;;;5052310;28;20116;-75
2021/08/11 08:29:29;;;;;;;15.85;6.85;;;40.00;43.80;;;;;;5052593;28;20052;-76
2021/08/11 08:31:55;;;;;;;10.63;6.47;;;39.90;43.90;;;;;;5052556;28;20029;-77
2021/08/11 08:34:21;;;;;;;10.15;7.10;;;39.80;44.20;;;;;;5052490;28;20028;-78
2021/08/11 08:36:47;;;;;;;13.10;6.47;;;39.70;44.20;;;;;;5052249;28;20033;-73
2021/08/11 08:39:12;;;;;;;10.10;6.50;;;39.50;44.20;;;;;;5051830;28;20025;-73
2021/08/11 08:41:42;;;;;;;12.48;6.40;;;39.40;44.20;;;;;;5051884;28;20032;-72
2021/08/11 08:44:08;;;;;;;8.73;5.68;;;39.30;44.40;;;;;;5052164;28;20059;-73
2021/08/11 08:46:34;;;;;;;10.35;6.60;;;39.20;44.50;;;;;;5051815;28;20075;-73
2021/08/11 08:49:01;;;;;;;14.10;7.20;;;39.00;44.50;;;;;;5052013;28;20488;-74
2021/08/11 08:51:29;;;;;;;13.90;6.70;;;38.80;45.40;;;;;;5052266;28;20090;-74
2021/08/11 08:53:55;;;;;;;11.38;5.90;;;38.60;44.90;;;;;;5051068;28;20380;-74
2021/08/11 08:56:21;;;;;;;10.25;5.72;;;38.20;45.10;;;;;;5051401;28;20044;-73
2021/08/11 08:58:46;;;;;;;13.93;7.53;;;38.10;45.60;;;;;;5051982;28;20100;-74
2021/08/11 09:01:12;;;;;;;10.63;6.68;;;38.00;46.00;;;;;;5052438;28;20017;-73
2021/08/11 09:03:38;;;;;;;11.45;5.75;;;37.90;46.10;;;;;;5052234;28;20468;-73
2021/08/11 09:06:03;;;;;;;10.27;6.68;;;37.90;46.10;;;;;;5052115;28;20082;-73
2021/08/11 09:08:29;;;;;;;10.95;5.90;;;37.90;46.10;;;;;;5051929;28;20390;-74
2021/08/11 09:10:55;;;;;;;7.47;5.65;;;38.00;46.00;;;;;;5052125;28;20087;-73
2021/08/11 09:13:23;;;;;;;13.52;5.93;;;38.10;46.10;;;;;;5052061;28;20039;-73
2021/08/11 09:15:51;;;;;;;9.82;5.68;;;38.20;46.20;;;;;;5051898;28;20036;-73
2021/08/11 09:18:24;;;;;;;10.05;6.00;;;38.30;45.80;;;;;;5052136;28;20061;-73
2021/08/11 09:21:12;;;;;;;10.27;6.25;;;38.20;45.90;;;;;;5052403;28;20069;-72
2021/08/11 09:23:48;;;;;;;10.10;6.05;;;38.10;46.00;;;;;;5050196;28;20376;-74
2021/08/11 09:26:16;;;;;;;11.07;5.93;;;38.10;46.10;;;;;;5050290;28;20025;-79
2021/08/11 09:28:45;;;;;;;6.70;5.47;;;38.00;46.00;;;;;;5051649;28;20021;-83
2021/08/11 09:31:30;;;;;;;7.30;5.85;;;38.00;46.00;;;;;;5051208;28;20099;-80
2021/08/11 09:34:01;;;;;;;9.73;5.28;;;37.90;46.10;;;;;;5051463;28;20376;-81
2021/08/11 09:36:38;;;;;;;12.07;5.55;;;37.90;46.30;;;;;;5052492;28;20126;-81
2021/08/11 09:39:05;;;;;;;12.48;6.32;;;37.70;46.30;;;;;;5051476;28;20435;-80
2021/08/11 09:41:34;;;;;;;13.00;5.63;;;37.60;46.30;;;;;;5050832;28;20028;-80
2021/08/11 09:44:04;;;;;;;9.38;5.57;;;37.50;46.30;;;;;;5051436;28;20021;-79
2021/08/11 09:46:30;;;;;;;9.77;5.65;;;37.40;46.40;;;;;;5050428;28;20057;-79
2021/08/11 09:48:57;;;;;;;11.02;6.57;;;37.30;46.50;;;;;;5050782;28;20024;-79
2021/08/11 09:51:23;;;;;;;9.85;6.03;;;37.00;46.70;;;;;;5050830;28;20040;-80
2021/08/11 09:53:49;;;;;;;11.93;5.50;;;36.90;47.00;;;;;;5050906;28;20025;-81
2021/08/11 09:56:15;;;;;;;12.13;5.78;;;36.80;46.80;;;;;;5050171;28;20095;-80
2021/08/11 09:58:45;;;;;;;5.68;5.05;;;36.80;47.10;;;;;;5050889;28;20033;-82
2021/08/11 10:01:16;;;;;;;7.20;5.77;;;36.70;47.10;;;;;;5050952;28;20074;-79
2021/08/11 10:03:59;;;;;;;9.23;5.43;;;36.70;47.30;;;;;;5050399;28;20055;-80
2021/08/11 10:06:36;;;;;;;11.93;5.32;;;36.60;47.30;;;;;;5050996;28;20268;-79
2021/08/11 10:09:23;;;;;;;11.68;6.07;;;36.60;47.50;;;;;;5050668;28;20033;-79
2021/08/11 10:11:54;;;;;;;11.55;5.85;;;36.50;47.40;;;;;;5050501;28;20036;-80
2021/08/11 10:14:24;;;;;;;;;;;36.50;47.50;;;;;;5051509;28;20029;-78
2021/08/11 10:16:52;;;;;;;9.95;5.90;;;36.50;47.50;;;;;;5050455;28;19994;-80
2021/08/11 10:19:22;;;;;;;11.70;6.47;;;36.50;47.60;;;;;;5050293;28;20387;-80
2021/08/11 10:21:59;;;;;;;10.90;5.97;;;36.50;47.90;;;;;;5050773;28;20056;-80
2021/08/11 10:24:26;;;;;;;9.13;6.32;;;36.40;47.80;;;;;;5050303;28;20029;-80
2021/08/11 10:26:53;;;;;;;10.27;5.88;;;36.30;47.70;;;;;;5050137;28;20032;-80
2021/08/11 10:29:20;;;;;;;11.32;5.80;;;36.10;47.80;;;;;;5050190;28;20467;-75
2021/08/11 10:31:46;;;;;;;8.48;5.75;;;36.00;48.00;;;;;;5050285;28;20074;-77
2021/08/11 10:34:14;;;;;;;8.85;5.78;;;35.80;48.10;;;;;;5050441;28;20032;-76
2021/08/11 10:36:42;;;;;;;9.65;6.28;;;35.70;48.20;;;;;;5049964;28;20025;-77
2021/08/11 10:39:09;;;;;;;14.40;6.18;;;35.40;48.30;;;;;;5050062;28;20044;-77
2021/08/11 10:41:36;;;;;;;6.43;5.10;;;35.30;48.60;;;;;;5050064;28;20037;-77
2021/08/11 10:44:04;;;;;;;7.88;5.20;;;35.20;48.80;;;;;;5050314;28;20019;-78
2021/08/11 10:47:00;;;;;;;9.70;6.00;;;35.20;48.90;;;;;;5050185;28;20025;-76
2021/08/11 10:49:29;;;;;;;11.00;5.80;;;35.10;49.20;;;;;;5049717;28;20536;-77
2021/08/11 10:52:00;;;;;;;10.70;5.97;;;35.10;49.10;;;;;;5049825;28;20039;-77
2021/08/11 10:54:26;;;;;;;7.93;5.32;;;35.00;49.20;;;;;;5049837;28;20066;-78
2021/08/11 10:56:56;;;;;;;5.72;5.03;;;34.90;49.30;;;;;;5049820;28;20411;-77
2021/08/11 10:59:21;;;;;;;7.20;5.30;;;34.80;49.50;;;;;;5050300;28;20447;-78
2021/08/11 11:01:51;;;;;;;8.80;5.70;;;34.80;49.40;;;;;;5050113;28;20032;-78
2021/08/11 11:04:37;;;;;;;8.13;5.70;;;34.90;49.60;;;;;;5053104;28;20023;-77
2021/08/11 11:07:16;;;;;;;8.73;5.03;;;35.00;49.60;;;;;;5053856;28;20467;-76
2021/08/11 11:09:43;;;;;;;10.02;6.18;;;35.10;49.30;;;;;;5053489;28;20029;-77
2021/08/11 11:12:19;;;;;;;9.80;5.65;;;35.00;49.20;;;;;;5053851;28;20052;-78
2021/08/11 11:15:01;;;;;;;14.27;5.28;;;35.00;49.30;;;;;;5053564;28;20455;-78
2021/08/11 11:17:30;;;;;;;11.55;5.60;;;35.10;49.10;;;;;;5053477;28;20044;-77
2021/08/11 11:20:11;;;;;;;12.82;5.60;;;35.00;48.80;;;;;;5053444;28;20410;-78
2021/08/11 11:22:43;;;;;;;10.90;5.40;;;34.90;48.90;;;;;;5053833;28;20036;-76
2021/08/11 11:25:14;;;;;;;13.68;5.30;;;34.80;49.00;;;;;;5053104;28;20028;-77
2021/08/11 11:27:52;;;;;;;14.15;5.22;;;34.70;49.20;;;;;;5051938;28;20337;-77
2021/08/11 11:30:27;;;;;;;12.55;5.30;;;34.80;49.20;;;;;;5053631;28;20082;-78
2021/08/11 11:32:53;;;;;;;12.57;6.50;;;34.70;49.00;;;;;;5053056;28;20017;-77
2021/08/11 11:35:21;;;;;;;8.60;5.68;;;34.70;49.10;;;;;;5052947;28;20017;-76
2021/08/11 11:38:05;;;;;;;8.38;5.05;;;34.60;49.10;;;;;;5053193;28;20055;-75
2021/08/11 11:40:32;;;;;;;11.18;5.40;;;34.50;49.10;;;;;;5058940;28;20081;-76
2021/08/11 11:43:30;;;;;;;6.25;4.72;;;34.50;49.20;;;;;;5059943;28;20029;-76
2021/08/11 11:45:57;;;;;;;11.77;5.28;;;34.50;49.00;;;;;;5048765;28;20029;-77
2021/08/11 11:48:23;;;;;;;7.43;4.88;;;34.50;49.00;;;;;;5053245;28;20437;-77
2021/08/11 11:50:51;;;;;;;9.00;4.80;;;34.50;49.20;;;;;;5053021;28;20111;-76
2021/08/11 11:53:24;;;;;;;8.77;4.65;;;34.50;49.20;;;;;;5052768;28;20418;-80
2021/08/11 11:55:51;;;;;;;7.47;4.90;;;34.50;49.00;;;;;;5052629;28;20056;-77
2021/08/11 11:58:24;;;;;;;7.50;4.95;;;34.50;48.90;;;;;;5053646;28;20021;-75
2021/08/11 12:01:04;;;;;;;5.45;4.43;;;34.40;48.90;;;;;;5051242;28;20021;-77
2021/08/11 12:03:41;;;;;;;6.47;4.80;;;34.30;48.80;;;;;;5053247;28;20066;-76
2021/08/11 12:06:09;;;;;;;9.32;4.70;;;34.30;48.70;;;;;;5053138;28;20108;-76
2021/08/11 12:08:35;;;;;;;10.15;5.65;;;34.30;48.70;;;;;;5053234;28;20471;-76
2021/08/11 12:11:03;;;;;;;5.47;4.88;;;34.30;48.70;;;;;;5052907;28;20025;-75
2021/08/11 12:13:49;;;;;;;9.77;5.15;;;34.30;48.60;;;;;;5053165;28;20024;-76
2021/08/11 12:16:17;;;;;;;8.43;4.97;;;34.20;48.70;;;;;;5053025;28;20376;-74
2021/08/11 12:18:45;;;;;;;6.35;5.10;;;34.10;48.70;;;;;;5053225;28;20464;-76
2021/08/11 12:21:13;;;;;;;5.95;4.88;;;34.00;48.80;;;;;;5053021;28;20025;-76
2021/08/11 12:23:39;;;;;;;7.40;5.00;;;34.00;49.10;;;;;;5052957;28;20028;-77
2021/08/11 12:26:12;;;;;;;14.40;5.68;;;34.00;49.20;;;;;;5052828;28;20123;-76
2021/08/11 12:28:45;;;;;;;13.55;4.88;;;34.00;49.40;;;;;;5052791;28;20029;-76
2021/08/11 12:31:22;;;;;;;5.00;4.50;;;33.90;49.30;;;;;;5053048;28;20025;-76
2021/08/11 12:33:51;;;;;;;10.95;4.85;;;33.90;49.40;;;;;;5051518;28;20024;-76
2021/08/11 12:36:21;;;;;;;9.50;5.38;;;33.90;49.00;;;;;;5052398;28;20032;-77
2021/08/11 12:39:11;;;;;;;13.20;5.40;;;33.90;48.60;;;;;;5052598;28;20475;-76
2021/08/11 12:42:04;;;;;;;7.43;5.97;;;33.80;48.50;;;;;;5052790;28;20305;-76
2021/08/11 12:44:30;;;;;;;12.95;5.03;;;33.80;49.10;;;;;;5050195;28;20054;-76
2021/08/11 12:46:58;;;;;;;8.68;4.63;;;33.70;48.50;;;;;;5052282;28;20491;-77
2021/08/11 12:49:49;;;;;;;14.38;4.78;;;33.60;48.50;;;;;;5052622;28;20120;-77